createdAt,value
2023-03-20T00:01:57.799Z,100809.41
2023-03-20T00:04:26.931Z,100813.25
2023-03-20T00:06:54.567Z,100824.16
2023-03-20T00:09:22.348Z,100831.59
2023-03-20T00:11:51.880Z,100835.72
2023-03-20T00:14:22.421Z,100840.34
2023-03-20T00:16:51.321Z,100820.75
2023-03-20T00:19:20.994Z,100834.34
2023-03-20T00:21:52.097Z,100836.56
2023-03-20T00:24:20.009Z,100834.94
2023-03-20T00:26:49.433Z,100840.22
2023-03-20T00:29:23.623Z,100846.38
2023-03-20T00:31:52.382Z,100846.50
2023-03-20T00:34:23.506Z,100849.88
2023-03-20T00:36:52.842Z,100849.69
2023-03-20T00:39:20.562Z,100847.19
2023-03-20T00:41:52.657Z,100844.38
2023-03-20T00:44:24.028Z,100837.91
2023-03-20T00:46:54.714Z,100843.84
2023-03-20T00:49:26.347Z,100845.13
2023-03-20T00:51:55.540Z,100851.28
2023-03-20T00:54:23.362Z,100857.59
2023-03-20T00:56:56.060Z,100848.34
2023-03-20T00:59:26.835Z,100853.97
2023-03-20T01:01:54.533Z,100846.50
2023-03-20T01:04:22.967Z,100847.72
2023-03-20T01:06:50.850Z,100851.69
2023-03-20T01:09:19.886Z,100849.88
2023-03-20T01:11:47.829Z,100845.06
2023-03-20T01:14:17.945Z,100849.38
2023-03-20T01:16:45.815Z,100846.56
2023-03-20T01:19:14.977Z,100849.38
2023-03-20T01:21:43.079Z,100844.44
2023-03-20T01:24:11.110Z,100855.06
2023-03-20T01:26:42.167Z,100852.13
2023-03-20T01:29:19.617Z,100843.69
2023-03-20T01:31:47.648Z,100855.75
2023-03-20T01:34:16.318Z,100857.59
2023-03-20T01:36:47.239Z,100864.91
2023-03-20T01:39:15.751Z,100855.41
2023-03-20T01:41:45.172Z,100860.09
2023-03-20T01:44:22.144Z,100864.59
2023-03-20T01:46:51.103Z,100867.56
2023-03-20T01:49:51.946Z,100860.03
2023-03-20T01:52:19.659Z,100862.84
2023-03-20T01:54:47.364Z,100868.16
2023-03-20T01:57:20.038Z,100863.06
2023-03-20T01:59:51.135Z,100866.56
2023-03-20T02:02:22.198Z,100864.09
2023-03-20T02:04:55.081Z,100870.06
2023-03-20T02:07:24.408Z,100866.56
2023-03-20T02:09:52.725Z,100855.94
2023-03-20T02:12:22.994Z,100864.09
2023-03-20T02:14:52.921Z,100862.63
2023-03-20T02:17:20.765Z,100866.56
2023-03-20T02:19:59.022Z,100865.22
2023-03-20T02:22:47.016Z,100861.94
2023-03-20T02:25:40.153Z,100864.59
2023-03-20T02:28:39.099Z,100867.41
2023-03-20T02:31:35.910Z,100857.16
2023-03-20T02:35:06.529Z,100862.84
2023-03-20T02:38:03.002Z,100863.53
2023-03-20T02:40:39.709Z,100860.59
2023-03-20T02:43:17.376Z,100862.84
2023-03-20T02:45:53.167Z,100864.38
2023-03-20T02:48:34.267Z,100871.75
2023-03-20T02:51:06.457Z,100878.88
2023-03-20T02:53:47.683Z,100871.88
2023-03-20T02:56:20.376Z,100880.34
2023-03-20T02:58:52.221Z,100873.41
2023-03-20T03:01:25.806Z,100876.91
2023-03-20T03:03:57.549Z,100885.06
2023-03-20T03:06:29.657Z,100876.91
2023-03-20T03:09:03.907Z,100883.56
2023-03-20T03:11:35.187Z,100885.88
2023-03-20T03:14:05.066Z,100879.88
2023-03-20T03:16:36.830Z,100879.22
2023-03-20T03:19:09.468Z,100865.59
2023-03-20T03:21:40.439Z,100870.91
2023-03-20T03:24:39.285Z,100870.75
2023-03-20T03:27:14.576Z,100863.91
2023-03-20T03:29:44.231Z,100858.97
2023-03-20T03:32:25.931Z,100857.53
2023-03-20T03:34:54.602Z,100859.50
2023-03-20T03:37:31.263Z,100855.56
2023-03-20T03:40:11.738Z,100861.72
2023-03-20T03:42:43.019Z,100862.41
2023-03-20T03:45:15.182Z,100865.34
2023-03-20T03:47:48.038Z,100869.00
2023-03-20T03:50:21.415Z,100869.84
2023-03-20T03:52:52.941Z,100880.03
2023-03-20T03:55:26.584Z,100887.00
2023-03-20T03:57:59.952Z,100884.06
2023-03-20T04:00:29.088Z,100886.72
2023-03-20T04:02:59.144Z,100883.38
2023-03-20T04:05:31.500Z,100882.38
2023-03-20T04:08:03.815Z,100893.88
2023-03-20T04:10:32.918Z,100887.41
2023-03-20T04:13:00.592Z,100883.75
2023-03-20T04:15:29.031Z,100888.75
2023-03-20T04:17:56.791Z,100886.78
2023-03-20T04:20:24.523Z,100883.22
2023-03-20T04:22:52.368Z,100885.38
2023-03-20T04:25:21.834Z,100885.03
2023-03-20T04:27:51.233Z,100890.53
2023-03-20T04:30:19.474Z,100881.31
2023-03-20T04:32:47.274Z,100888.63
2023-03-20T04:35:14.935Z,100886.44
2023-03-20T04:37:42.582Z,100890.59
2023-03-20T04:40:11.810Z,100891.00
2023-03-20T04:42:39.608Z,100893.66
2023-03-20T04:45:10.408Z,100896.16
2023-03-20T04:47:38.226Z,100898.13
2023-03-20T04:50:07.145Z,100904.75
2023-03-20T04:52:34.800Z,100906.03
2023-03-20T04:55:02.541Z,100901.41
2023-03-20T04:57:31.894Z,100901.09
2023-03-20T04:59:59.615Z,100900.31
2023-03-20T05:02:28.606Z,100905.34
2023-03-20T05:04:56.222Z,100895.19
2023-03-20T05:07:23.965Z,100907.56
2023-03-20T05:09:51.758Z,100908.16
2023-03-20T05:12:19.409Z,100909.31
2023-03-20T05:14:47.109Z,100917.97
2023-03-20T05:17:15.365Z,100917.53
2023-03-20T05:19:44.557Z,100917.53
2023-03-20T05:22:12.303Z,100916.53
2023-03-20T05:24:40.000Z,100920.81
2023-03-20T05:27:07.600Z,100916.69
2023-03-20T05:29:35.280Z,100913.88
2023-03-20T05:32:03.020Z,100914.19
2023-03-20T05:34:31.057Z,100907.19
2023-03-20T05:37:00.356Z,100899.28
2023-03-20T05:39:28.079Z,100902.47
2023-03-20T05:41:56.039Z,100909.00
2023-03-20T05:44:24.039Z,100908.00
2023-03-20T05:46:51.768Z,100901.50
2023-03-20T05:49:19.471Z,100900.50
2023-03-20T05:51:47.271Z,100905.75
2023-03-20T05:54:16.511Z,100913.72
2023-03-20T05:56:44.215Z,100917.59
2023-03-20T05:59:13.630Z,100931.75
2023-03-20T06:01:41.311Z,100932.25
2023-03-20T06:04:09.069Z,100936.78
2023-03-20T06:06:37.905Z,100939.25
2023-03-20T06:09:05.914Z,100940.50
2023-03-20T06:11:37.459Z,100932.75
2023-03-20T06:14:05.508Z,100933.44
2023-03-20T06:16:33.177Z,100940.25
2023-03-20T06:19:01.073Z,100948.09
2023-03-20T06:21:28.840Z,100938.69
2023-03-20T06:23:56.667Z,100943.69
2023-03-20T06:26:24.332Z,100940.34
2023-03-20T06:28:53.296Z,100948.94
2023-03-20T06:31:21.274Z,100948.94
2023-03-20T06:33:49.009Z,100948.78
2023-03-20T06:36:16.675Z,100953.81
2023-03-20T06:38:44.459Z,100964.47
2023-03-20T06:41:14.976Z,100968.94
2023-03-20T06:43:49.262Z,100975.56
2023-03-20T06:46:18.242Z,100974.56
2023-03-20T06:48:45.907Z,100969.84
2023-03-20T06:51:19.730Z,100968.47
2023-03-20T06:53:47.419Z,100969.63
2023-03-20T06:56:15.128Z,100969.16
2023-03-20T06:58:42.922Z,100965.88
2023-03-20T07:01:15.712Z,100961.41
2023-03-20T07:03:45.176Z,100956.41
2023-03-20T07:06:13.509Z,100959.56
2023-03-20T07:08:41.308Z,100966.44
2023-03-20T07:11:09.403Z,100954.19
2023-03-20T07:13:37.976Z,100961.94
2023-03-20T07:16:06.485Z,100963.63
2023-03-20T07:18:34.175Z,100963.22
2023-03-20T07:21:05.371Z,100969.38
2023-03-20T07:23:50.983Z,100962.84
2023-03-20T07:26:18.668Z,100964.38
2023-03-20T07:28:46.400Z,100968.00
2023-03-20T07:31:21.145Z,100971.06
2023-03-20T07:33:48.926Z,100967.25
2023-03-20T07:36:17.910Z,100970.63
2023-03-20T07:38:45.930Z,100972.94
2023-03-20T07:41:13.668Z,100975.88
2023-03-20T07:43:43.056Z,100974.34
2023-03-20T07:46:12.442Z,100977.44
2023-03-20T07:48:40.361Z,100979.44
2023-03-20T07:51:08.564Z,100974.19
2023-03-20T07:53:37.669Z,100989.25
2023-03-20T07:56:05.707Z,100993.81
2023-03-20T07:58:33.401Z,100987.63
2023-03-20T08:01:01.072Z,100986.78
2023-03-20T08:03:28.956Z,100991.13
2023-03-20T08:05:57.544Z,100987.31
2023-03-20T08:08:25.528Z,100993.16
2023-03-20T08:10:54.547Z,100998.34
2023-03-20T08:13:22.235Z,100991.72
2023-03-20T08:15:49.910Z,100995.34
2023-03-20T08:18:17.578Z,100998.72
2023-03-20T08:20:45.229Z,100986.94
2023-03-20T08:23:12.893Z,100992.09
2023-03-20T08:25:40.614Z,100988.47
2023-03-20T08:28:11.672Z,100991.47
2023-03-20T08:30:39.549Z,101000.31
2023-03-20T08:33:07.311Z,101003.34
2023-03-20T08:35:35.450Z,101005.03
2023-03-20T08:38:03.682Z,101004.88
2023-03-20T08:40:31.794Z,101011.72
2023-03-20T08:43:00.254Z,101011.44
2023-03-20T08:45:29.357Z,101015.38
2023-03-20T08:47:56.973Z,101012.41
2023-03-20T08:50:24.791Z,101025.06
2023-03-20T08:52:52.763Z,101029.69
2023-03-20T08:55:20.822Z,101032.34
2023-03-20T08:57:48.616Z,101035.00
2023-03-20T09:00:19.299Z,101034.03
2023-03-20T09:02:48.426Z,101030.09
2023-03-20T09:05:16.734Z,101036.63
2023-03-20T09:07:45.439Z,101037.66
2023-03-20T09:10:13.747Z,101031.97
2023-03-20T09:12:41.483Z,101026.63
2023-03-20T09:15:10.094Z,101026.03
2023-03-20T09:17:37.877Z,101031.63
2023-03-20T09:20:08.337Z,101037.69
2023-03-20T09:22:36.406Z,101031.41
2023-03-20T09:25:04.437Z,101036.81
2023-03-20T09:27:32.227Z,101036.97
2023-03-20T09:30:00.031Z,101042.53
2023-03-20T09:32:27.784Z,101041.09
2023-03-20T09:34:55.518Z,101046.28
2023-03-20T09:37:24.675Z,101052.66
2023-03-20T09:39:52.335Z,101050.69
2023-03-20T09:42:34.086Z,101041.34
2023-03-20T09:45:11.173Z,101053.13
2023-03-20T09:47:47.500Z,101058.47
2023-03-20T09:50:25.848Z,101055.88
2023-03-20T09:53:00.885Z,101056.25
2023-03-20T09:55:35.930Z,101055.94
2023-03-20T09:58:11.656Z,101054.41
2023-03-20T10:00:42.022Z,101055.56
2023-03-20T10:03:18.949Z,101052.56
2023-03-20T10:05:52.085Z,101058.78
2023-03-20T10:08:27.188Z,101052.66
2023-03-20T10:11:05.896Z,101052.03
2023-03-20T10:13:49.250Z,101062.75
2023-03-20T10:16:28.805Z,101042.72
2023-03-20T10:19:06.009Z,101039.91
2023-03-20T10:21:40.700Z,101035.91
2023-03-20T10:24:19.631Z,101048.25
2023-03-20T10:26:48.319Z,101039.09
2023-03-20T10:29:26.450Z,101040.75
2023-03-20T10:31:59.348Z,101038.34
2023-03-20T10:34:42.560Z,101034.38
2023-03-20T10:37:24.158Z,101032.97
2023-03-20T10:40:05.531Z,101034.59
2023-03-20T10:42:38.756Z,101033.97
2023-03-20T10:45:16.131Z,101036.53
2023-03-20T10:47:46.669Z,101037.31
2023-03-20T10:50:18.826Z,101026.84
2023-03-20T10:52:49.302Z,101035.75
2023-03-20T10:55:22.160Z,101028.72
2023-03-20T10:57:56.324Z,101024.16
2023-03-20T11:00:27.067Z,101014.84
2023-03-20T11:02:55.129Z,101013.81
2023-03-20T11:05:26.542Z,101012.06
2023-03-20T11:08:03.311Z,101015.94
2023-03-20T11:10:35.209Z,101013.84
2023-03-20T11:13:16.727Z,101015.50
2023-03-20T11:15:44.439Z,101010.59
2023-03-20T11:18:14.861Z,101005.72
2023-03-20T11:20:48.330Z,100997.84
2023-03-20T11:23:18.629Z,100997.81
2023-03-20T11:25:52.499Z,101003.59
2023-03-20T11:28:25.865Z,100999.78
2023-03-20T11:31:07.208Z,101009.63
2023-03-20T11:33:39.993Z,101013.38
2023-03-20T11:36:27.673Z,101004.75
2023-03-20T11:39:02.328Z,101003.81
2023-03-20T11:41:31.544Z,101001.88
2023-03-20T11:43:59.407Z,101003.53
2023-03-20T11:46:27.134Z,100998.59
2023-03-20T11:49:17.662Z,100996.25
2023-03-20T11:51:45.642Z,100995.66
2023-03-20T11:54:19.230Z,100991.78
2023-03-20T11:56:55.667Z,100988.41
2023-03-20T11:59:26.697Z,100985.94
2023-03-20T12:01:56.868Z,100991.94
2023-03-20T12:04:30.590Z,100982.91
2023-03-20T12:07:04.386Z,100977.22
2023-03-20T12:09:41.016Z,100979.91
2023-03-20T12:12:17.491Z,100972.84
2023-03-20T12:14:55.091Z,100964.84
2023-03-20T12:17:35.004Z,100967.63
2023-03-20T12:20:08.507Z,100957.47
2023-03-20T12:22:41.175Z,100954.63
2023-03-20T12:25:20.083Z,100960.50
2023-03-20T12:27:56.540Z,100953.03
2023-03-20T12:30:33.091Z,100940.19
2023-03-20T12:33:05.652Z,100941.41
2023-03-20T12:35:37.599Z,100938.72
2023-03-20T12:38:15.815Z,100937.47
2023-03-20T12:40:59.557Z,100935.59
2023-03-20T12:43:36.104Z,100938.28
2023-03-20T12:46:12.591Z,100938.28
2023-03-20T12:48:55.462Z,100930.19
2023-03-20T12:51:36.641Z,100924.19
2023-03-20T12:54:18.765Z,100933.28
2023-03-20T12:56:59.847Z,100929.97
2023-03-20T12:59:40.603Z,100920.00
2023-03-20T13:02:21.441Z,100923.88
2023-03-20T13:05:02.739Z,100914.88
2023-03-20T13:07:50.457Z,100913.06
2023-03-20T13:10:22.280Z,100913.34
2023-03-20T13:13:05.464Z,100916.47
2023-03-20T13:15:50.574Z,100922.28
2023-03-20T13:18:24.722Z,100919.31
2023-03-20T13:20:55.198Z,100917.06
2023-03-20T13:23:27.395Z,100915.81
2023-03-20T13:26:08.586Z,100909.09
2023-03-20T13:28:42.884Z,100908.72
2023-03-20T13:31:25.532Z,100910.78
2023-03-20T13:34:00.848Z,100906.75
2023-03-20T13:36:43.847Z,100891.94
2023-03-20T13:39:26.048Z,100902.13
2023-03-20T13:41:55.967Z,100898.44
2023-03-20T13:44:27.355Z,100898.72
2023-03-20T13:46:58.240Z,100891.84
2023-03-20T13:49:33.426Z,100893.44
2023-03-20T13:52:07.694Z,100888.50
2023-03-20T13:54:53.639Z,100892.25
2023-03-20T13:57:39.198Z,100889.34
2023-03-20T14:00:12.906Z,100890.50
2023-03-20T14:02:54.971Z,100883.13
2023-03-20T14:05:26.596Z,100877.75
2023-03-20T14:07:57.815Z,100883.13
2023-03-20T14:10:38.117Z,100882.56
2023-03-20T14:13:12.838Z,100881.25
2023-03-20T14:15:46.787Z,100874.50
2023-03-20T14:18:17.207Z,100880.63
2023-03-20T14:20:52.721Z,100880.88
2023-03-20T14:23:29.263Z,100881.38
2023-03-20T14:25:59.586Z,100875.00
2023-03-20T14:28:31.561Z,100873.84
2023-03-20T14:31:23.393Z,100882.63
2023-03-20T14:34:00.429Z,100876.94
2023-03-20T14:36:31.013Z,100883.13
2023-03-20T14:39:13.355Z,100884.53
2023-03-20T14:42:00.756Z,100882.56
2023-03-20T14:44:46.386Z,100873.06
2023-03-20T14:47:24.542Z,100873.41
2023-03-20T14:49:56.661Z,100882.88
2023-03-20T14:52:36.968Z,100876.06
2023-03-20T14:55:34.130Z,100870.59
2023-03-20T14:58:27.756Z,100874.19
2023-03-20T15:00:55.456Z,100871.56
2023-03-20T15:03:24.184Z,100879.13
2023-03-20T15:05:57.830Z,100872.13
2023-03-20T15:08:29.966Z,100883.06
2023-03-20T15:11:00.809Z,100875.06
2023-03-20T15:13:31.214Z,100867.75
2023-03-20T15:16:04.078Z,100876.13
2023-03-20T15:18:38.628Z,100870.47
2023-03-20T15:21:13.928Z,100863.44
2023-03-20T15:23:43.625Z,100868.34
2023-03-20T15:26:11.942Z,100860.19
2023-03-20T15:28:43.041Z,100860.19
2023-03-20T15:31:22.595Z,100864.53
2023-03-20T15:33:50.513Z,100868.56
2023-03-20T15:36:20.625Z,100864.56
2023-03-20T15:38:49.547Z,100865.91
2023-03-20T15:41:27.891Z,100872.94
2023-03-20T15:44:04.524Z,100871.97
2023-03-20T15:46:32.204Z,100872.28
2023-03-20T15:49:00.281Z,100878.00
2023-03-20T15:51:29.192Z,100867.47
2023-03-20T15:53:57.436Z,100876.97
2023-03-20T15:56:28.129Z,100864.81
2023-03-20T15:58:59.854Z,100880.31
2023-03-20T16:01:27.774Z,100875.31
2023-03-20T16:04:00.459Z,100877.34
2023-03-20T16:06:29.337Z,100888.69
2023-03-20T16:09:00.490Z,100892.38
2023-03-20T16:11:38.321Z,100889.53
2023-03-20T16:14:09.094Z,100889.03
2023-03-20T16:16:37.543Z,100892.03
2023-03-20T16:19:09.378Z,100895.69
2023-03-20T16:21:41.040Z,100888.38
2023-03-20T16:24:12.343Z,100894.88
2023-03-20T16:26:46.845Z,100893.34
2023-03-20T16:29:17.380Z,100891.03
2023-03-20T16:31:50.874Z,100899.88
2023-03-20T16:34:22.168Z,100897.69
2023-03-20T16:36:54.386Z,100899.19
2023-03-20T16:39:24.986Z,100896.84
2023-03-20T16:42:11.192Z,100901.34
2023-03-20T16:44:42.328Z,100898.97
2023-03-20T16:47:22.384Z,100899.16
2023-03-20T16:50:18.735Z,100904.66
2023-03-20T16:52:49.245Z,100901.97
2023-03-20T16:55:22.303Z,100898.63
2023-03-20T16:57:53.948Z,100902.28
2023-03-20T17:00:29.511Z,100901.97
2023-03-20T17:03:13.922Z,100907.56
2023-03-20T17:05:47.544Z,100900.88
2023-03-20T17:08:18.025Z,100906.88
2023-03-20T17:10:50.055Z,100911.53
2023-03-20T17:13:17.892Z,100911.53
2023-03-20T17:15:46.951Z,100913.84
2023-03-20T17:18:15.397Z,100912.50
2023-03-20T17:20:43.383Z,100919.84
2023-03-20T17:23:17.790Z,100918.84
2023-03-20T17:25:45.565Z,100921.66
2023-03-20T17:28:20.623Z,100930.13
2023-03-20T17:30:51.301Z,100928.41
2023-03-20T17:33:20.881Z,100931.25
2023-03-20T17:35:49.596Z,100937.41
2023-03-20T17:38:19.683Z,100935.44
2023-03-20T17:40:47.399Z,100934.28
2023-03-20T17:43:16.719Z,100928.94
2023-03-20T17:45:45.557Z,100931.09
2023-03-20T17:48:16.731Z,100939.91
2023-03-20T17:50:45.613Z,100926.75
2023-03-20T17:53:16.974Z,100932.06
2023-03-20T17:55:44.968Z,100930.41
2023-03-20T17:58:17.466Z,100927.59
2023-03-20T18:00:45.699Z,100930.41
2023-03-20T18:03:15.336Z,100929.59
2023-03-20T18:05:43.461Z,100929.75
2023-03-20T18:08:14.972Z,100932.72
2023-03-20T18:10:43.578Z,100932.03
2023-03-20T18:13:13.939Z,100927.53
2023-03-20T18:15:42.012Z,100931.06
2023-03-20T18:18:10.307Z,100927.69
2023-03-20T18:20:41.231Z,100928.38
2023-03-20T18:23:09.567Z,100930.56
2023-03-20T18:25:37.551Z,100929.53
2023-03-20T18:28:07.352Z,100922.69
2023-03-20T18:30:37.897Z,100921.34
2023-03-20T18:33:06.895Z,100917.97
2023-03-20T18:35:36.061Z,100918.16
2023-03-20T18:38:06.345Z,100920.97
2023-03-20T18:40:35.899Z,100913.00
2023-03-20T18:43:04.181Z,100918.31
2023-03-20T18:45:32.937Z,100923.94
2023-03-20T18:48:03.755Z,100918.94
2023-03-20T18:50:36.532Z,100923.59
2023-03-20T18:53:07.891Z,100923.13
2023-03-20T18:55:36.855Z,100930.59
2023-03-20T18:58:06.137Z,100921.94
2023-03-20T19:00:38.226Z,100927.50
2023-03-20T19:03:07.236Z,100922.19
2023-03-20T19:05:35.098Z,100926.53
2023-03-20T19:08:03.451Z,100930.72
2023-03-20T19:10:36.116Z,100923.22
2023-03-20T19:13:05.876Z,100925.22
2023-03-20T19:15:38.555Z,100920.19
2023-03-20T19:18:08.753Z,100918.88
2023-03-20T19:20:38.751Z,100916.22
2023-03-20T19:23:08.711Z,100914.03
2023-03-20T19:25:38.724Z,100921.88
2023-03-20T19:28:07.763Z,100912.22
2023-03-20T19:30:38.326Z,100910.84
2023-03-20T19:33:07.402Z,100913.84
2023-03-20T19:35:58.913Z,100913.44
2023-03-20T19:38:24.174Z,100908.28
2023-03-20T19:40:54.180Z,100901.91
2023-03-20T19:43:22.382Z,100902.06
2023-03-20T19:45:57.943Z,100909.53
2023-03-20T19:48:43.353Z,100905.88
2023-03-20T19:51:16.797Z,100904.72
2023-03-20T19:53:45.964Z,100904.25
2023-03-20T19:56:16.568Z,100913.25
2023-03-20T19:58:44.769Z,100901.00
2023-03-20T20:01:17.450Z,100899.03
2023-03-20T20:03:46.271Z,100897.75
2023-03-20T20:06:15.923Z,100903.81
2023-03-20T20:08:49.072Z,100904.59
2023-03-20T20:11:19.106Z,100908.09
2023-03-20T20:16:35.264Z,100899.28
2023-03-20T20:19:03.151Z,100891.44
2023-03-20T20:24:18.664Z,100899.59
2023-03-20T20:26:54.893Z,100903.91
2023-03-20T20:29:28.255Z,100898.22
2023-03-20T20:31:55.971Z,100897.38
2023-03-20T20:40:00.193Z,100892.19
2023-03-20T20:42:29.400Z,100906.03
2023-03-20T20:44:57.092Z,100900.75
2023-03-20T20:47:24.708Z,100899.63
2023-03-20T20:49:52.378Z,100898.94
2023-03-20T20:52:20.018Z,100901.91
2023-03-20T20:54:48.287Z,100902.22
2023-03-20T20:57:16.209Z,100901.50
2023-03-20T20:59:45.302Z,100907.41
2023-03-20T21:02:15.709Z,100899.41
2023-03-20T21:04:44.171Z,100905.06
2023-03-20T21:07:13.414Z,100913.56
2023-03-20T21:09:41.648Z,100911.91
2023-03-20T21:12:22.651Z,100909.94
2023-03-20T21:14:59.850Z,100907.25
2023-03-20T21:17:27.990Z,100907.09
2023-03-20T21:19:56.066Z,100907.94
2023-03-20T21:22:24.597Z,100905.44
2023-03-20T21:25:07.239Z,100905.59
2023-03-20T21:27:40.940Z,100902.91
2023-03-20T21:30:11.504Z,100901.25
2023-03-20T21:32:39.847Z,100913.56
2023-03-20T21:35:09.292Z,100906.06
2023-03-20T21:40:25.660Z,100901.41
2023-03-20T21:42:53.305Z,100898.81
2023-03-20T21:48:49.709Z,100896.84
2023-03-20T21:51:50.252Z,100898.22
2023-03-20T21:54:45.897Z,100897.16
2023-03-20T21:57:24.995Z,100894.34
2023-03-20T22:02:21.342Z,100900.09
2023-03-20T22:05:53.078Z,100904.59
2023-03-20T22:25:16.576Z,100893.34
2023-03-20T22:28:00.838Z,100895.84
2023-03-20T22:31:03.345Z,100900.03
2023-03-20T22:42:13.756Z,100902.69
2023-03-20T22:47:04.591Z,100888.31
2023-03-20T22:49:32.394Z,100892.81
2023-03-20T22:52:24.549Z,100887.28
2023-03-20T22:54:49.108Z,100886.94
2023-03-20T22:57:16.730Z,100893.66
2023-03-20T22:59:44.415Z,100886.28
2023-03-20T23:02:12.093Z,100891.59
2023-03-20T23:04:39.919Z,100880.78
2023-03-20T23:07:09.287Z,100874.63
2023-03-20T23:09:37.015Z,100876.91
2023-03-20T23:12:04.925Z,100880.88
2023-03-20T23:14:44.806Z,100870.84
2023-03-20T23:17:13.338Z,100871.38
2023-03-20T23:19:47.865Z,100871.59
2023-03-20T23:22:18.007Z,100876.63
2023-03-20T23:24:45.732Z,100883.91
2023-03-20T23:27:13.388Z,100877.13
2023-03-20T23:29:41.180Z,100878.13
2023-03-20T23:32:08.820Z,100880.06
2023-03-20T23:34:37.469Z,100875.88
2023-03-20T23:37:05.313Z,100875.16
2023-03-20T23:39:34.368Z,100876.16
2023-03-20T23:42:14.646Z,100876.00
2023-03-20T23:44:56.314Z,100869.16
2023-03-20T23:47:30.062Z,100862.78
2023-03-20T23:50:03.085Z,100859.75
2023-03-20T23:52:30.718Z,100857.75
2023-03-20T23:55:00.699Z,100858.59
2023-03-20T23:57:28.396Z,100856.47
2023-03-20T23:59:56.053Z,100852.44
